Time;durP1;ratioP1;P1;durP2;ratioP2;P2;SDS_P1;SDS_P2;PMS_P1;PMS_P2;Temp;Humidity;BMP_temperature;BMP_pressure;BME280_temperature;BME280_humidity;BME280_pressure;Samples;Min_cycle;Max_cycle;Signal;HPM_P1;HPM_P2
2022/10/25 00:00:52;;;;;;;5.57;2.20;;;14.10;99.90;;;;;;5064060;28;20188;-55
2022/10/25 00:03:19;;;;;;;4.23;1.97;;;14.20;99.90;;;;;;5060571;28;20211;-55
2022/10/25 00:05:46;;;;;;;6.83;2.30;;;14.20;99.90;;;;;;5066540;28;20651;-55
2022/10/25 00:08:13;;;;;;;4.13;2.63;;;14.20;99.90;;;;;;5068551;28;20217;-56
2022/10/25 00:10:39;;;;;;;4.27;2.50;;;14.20;99.90;;;;;;5061320;28;20215;-55
2022/10/25 00:13:06;;;;;;;3.77;2.13;;;14.20;99.90;;;;;;5067421;28;20206;-55
2022/10/25 00:15:33;;;;;;;7.20;2.20;;;14.20;99.90;;;;;;5061065;28;20873;-55
2022/10/25 00:18:00;;;;;;;3.23;2.10;;;14.30;99.90;;;;;;5064359;28;20224;-55
2022/10/25 00:20:27;;;;;;;3.37;2.00;;;14.30;99.90;;;;;;5072355;28;20639;-56
2022/10/25 00:22:53;;;;;;;4.50;2.50;;;14.30;99.90;;;;;;5066287;28;20297;-55
2022/10/25 00:25:20;;;;;;;5.27;2.17;;;14.30;99.90;;;;;;5060545;28;20550;-56
2022/10/25 00:27:47;;;;;;;8.17;2.57;;;14.30;99.90;;;;;;5058499;28;20354;-56
2022/10/25 00:30:14;;;;;;;6.03;2.10;;;14.20;99.90;;;;;;5064079;28;20847;-56
2022/10/25 00:32:41;;;;;;;5.23;2.43;;;14.20;99.90;;;;;;5059963;28;20192;-56
2022/10/25 00:35:08;;;;;;;6.50;2.43;;;14.20;99.90;;;;;;5058424;28;20647;-56
2022/10/25 00:37:36;;;;;;;5.77;2.10;;;14.30;99.90;;;;;;5057457;28;20736;-55
2022/10/25 00:40:03;;;;;;;5.00;2.10;;;14.30;99.90;;;;;;5058076;28;20199;-56
2022/10/25 00:42:30;;;;;;;6.27;1.90;;;14.30;99.90;;;;;;5060564;28;20272;-55
2022/10/25 00:45:02;;;;;;;7.43;2.07;;;14.30;99.90;;;;;;5061639;28;20614;-56
2022/10/25 00:47:43;;;;;;;8.70;2.50;;;14.30;99.90;;;;;;5075161;28;20675;-56
2022/10/25 00:50:40;;;;;;;8.33;3.00;;;14.30;99.90;;;;;;5054634;28;20264;-58
2022/10/25 00:53:22;;;;;;;7.87;2.00;;;14.40;99.90;;;;;;5063267;28;20198;-58
2022/10/25 00:55:57;;;;;;;4.87;2.00;;;14.30;99.90;;;;;;5055679;28;20201;-55
2022/10/25 00:58:27;;;;;;;5.50;2.30;;;14.40;99.90;;;;;;5064499;28;20236;-56
2022/10/25 01:00:55;;;;;;;11.50;2.70;;;14.40;99.90;;;;;;5057262;28;20201;-55
2022/10/25 01:03:23;;;;;;;10.73;2.40;;;14.40;99.90;;;;;;5063898;28;20199;-57
2022/10/25 01:05:51;;;;;;;8.60;2.40;;;14.40;99.90;;;;;;5073088;28;20295;-55
2022/10/25 01:08:20;;;;;;;5.87;2.40;;;14.30;99.90;;;;;;5062896;28;20204;-55
2022/10/25 01:10:47;;;;;;;5.90;2.43;;;14.30;99.90;;;;;;5066528;28;20244;-55
2022/10/25 01:13:14;;;;;;;12.90;3.07;;;14.40;99.90;;;;;;5063803;28;20223;-56
2022/10/25 01:16:19;;;;;;;10.37;3.00;;;14.40;99.90;;;;;;5068163;28;20191;-56
2022/10/25 01:19:27;;;;;;;7.97;3.27;;;14.40;99.90;;;;;;5069144;28;20215;-55
2022/10/25 01:22:02;;;;;;;7.27;2.63;;;14.40;99.90;;;;;;5033256;28;21287;-55
2022/10/25 01:24:46;;;;;;;10.60;2.63;;;14.40;99.90;;;;;;5059756;28;20203;-55
2022/10/25 01:27:42;;;;;;;10.17;2.33;;;14.40;99.90;;;;;;5063748;28;20203;-54
2022/10/25 01:30:41;;;;;;;8.23;2.23;;;14.40;99.90;;;;;;5063728;28;20188;-56
2022/10/25 01:33:23;;;;;;;12.07;3.67;;;14.40;99.90;;;;;;5067889;28;20213;-56
2022/10/25 01:36:11;;;;;;;9.43;3.40;;;14.40;99.90;;;;;;5070847;28;20592;-56
2022/10/25 01:38:53;;;;;;;7.87;2.63;;;14.40;99.90;;;;;;5067749;28;20195;-56
2022/10/25 01:41:45;;;;;;;9.70;2.17;;;14.30;99.90;;;;;;5068613;28;20201;-56
2022/10/25 01:44:53;;;;;;;11.50;3.10;;;14.30;99.90;;;;;;5069097;28;20203;-55
2022/10/25 01:47:31;;;;;;;5.53;2.07;;;14.30;99.90;;;;;;5066238;28;20206;-56
2022/10/25 01:50:09;;;;;;;6.07;2.23;;;14.30;99.90;;;;;;5065848;28;20226;-56
2022/10/25 01:52:36;;;;;;;8.90;2.00;;;14.30;99.90;;;;;;5069836;28;20198;-56
2022/10/25 01:55:09;;;;;;;8.33;2.10;;;14.20;99.90;;;;;;5070216;28;20206;-56
2022/10/25 01:58:14;;;;;;;10.10;2.97;;;14.20;99.90;;;;;;5070842;28;20243;-55
2022/10/25 02:01:16;;;;;;;6.10;1.83;;;14.20;99.90;;;;;;5065216;28;20200;-56
2022/10/25 02:04:01;;;;;;;5.40;2.17;;;14.20;99.90;;;;;;5034444;28;20239;-56
2022/10/25 02:06:41;;;;;;;7.83;2.83;;;14.20;99.90;;;;;;5070558;28;20294;-56
2022/10/25 02:09:18;;;;;;;6.93;2.80;;;14.20;99.90;;;;;;5070304;28;20207;-56
2022/10/25 02:11:47;;;;;;;8.77;2.00;;;14.20;99.90;;;;;;5061564;28;20305;-56
2022/10/25 02:14:38;;;;;;;5.83;1.97;;;14.20;99.90;;;;;;5066910;28;20248;-56
2022/10/25 02:17:15;;;;;;;8.77;2.27;;;14.20;99.90;;;;;;5052298;28;20216;-56
2022/10/25 02:19:50;;;;;;;4.53;1.70;;;14.20;99.90;;;;;;5057912;28;20199;-55
2022/10/25 02:22:19;;;;;;;7.20;2.47;;;14.20;99.90;;;;;;5066144;28;20191;-55
2022/10/25 02:24:49;;;;;;;8.80;2.10;;;14.20;99.90;;;;;;5068535;28;20241;-56
2022/10/25 02:27:19;;;;;;;6.83;2.00;;;14.20;99.90;;;;;;5069227;28;20210;-56
2022/10/25 02:29:47;;;;;;;10.90;2.27;;;14.20;99.90;;;;;;5067432;28;20238;-56
2022/10/25 02:32:13;;;;;;;5.77;1.97;;;14.20;99.90;;;;;;5066710;28;20211;-55
2022/10/25 02:34:40;;;;;;;8.47;1.67;;;14.20;99.90;;;;;;5065441;28;20195;-55
2022/10/25 02:37:08;;;;;;;9.30;2.30;;;14.20;99.90;;;;;;5067234;28;20592;-55
2022/10/25 02:39:35;;;;;;;8.10;2.50;;;14.20;99.90;;;;;;5060601;28;20319;-55
2022/10/25 02:42:02;;;;;;;5.27;2.13;;;14.10;99.90;;;;;;5065919;28;20561;-56
2022/10/25 02:44:29;;;;;;;7.10;2.77;;;14.20;99.90;;;;;;5067071;28;20196;-56
2022/10/25 02:46:56;;;;;;;6.13;2.10;;;14.20;99.90;;;;;;5063187;28;20199;-56
2022/10/25 02:49:23;;;;;;;7.17;2.07;;;14.20;99.90;;;;;;5068637;28;20249;-56
2022/10/25 02:51:50;;;;;;;6.03;2.50;;;14.20;99.90;;;;;;5063380;28;20249;-56
2022/10/25 02:54:17;;;;;;;6.83;2.77;;;14.10;99.90;;;;;;5067098;28;20207;-55
2022/10/25 02:56:44;;;;;;;8.03;2.50;;;14.00;99.90;;;;;;5059530;28;20215;-55
2022/10/25 02:59:14;;;;;;;5.90;2.27;;;14.00;99.90;;;;;;5059141;28;20224;-56
2022/10/25 03:01:41;;;;;;;7.20;2.23;;;14.00;99.90;;;;;;5059245;28;20261;-57
2022/10/25 03:04:07;;;;;;;5.63;2.17;;;13.90;99.90;;;;;;5066603;28;20199;-56
2022/10/25 03:06:34;;;;;;;5.03;2.17;;;13.90;99.90;;;;;;5065234;28;20673;-58
2022/10/25 03:09:02;;;;;;;4.83;2.20;;;13.90;99.90;;;;;;5064944;28;20204;-60
2022/10/25 03:11:29;;;;;;;7.27;2.50;;;13.90;99.90;;;;;;5060983;28;20765;-59
2022/10/25 03:13:55;;;;;;;9.47;2.23;;;13.90;99.90;;;;;;5065176;28;20282;-56
2022/10/25 03:16:22;;;;;;;6.37;2.00;;;13.90;99.90;;;;;;5063882;28;20223;-55
2022/10/25 03:18:49;;;;;;;8.30;2.30;;;13.80;99.90;;;;;;5064214;28;20210;-54
2022/10/25 03:21:16;;;;;;;4.63;2.37;;;13.80;99.90;;;;;;5066306;28;20861;-56
2022/10/25 03:23:43;;;;;;;5.67;2.27;;;13.80;99.90;;;;;;5066502;28;20202;-55
2022/10/25 03:26:09;;;;;;;5.53;1.87;;;13.80;99.90;;;;;;5064487;28;20290;-55
2022/10/25 03:28:36;;;;;;;9.97;2.17;;;13.80;99.90;;;;;;5064407;28;20205;-56
2022/10/25 03:31:11;;;;;;;9.17;3.20;;;13.80;99.90;;;;;;5065323;28;20212;-56
2022/10/25 03:33:38;;;;;;;8.20;2.47;;;13.70;99.90;;;;;;5061294;28;20218;-55
2022/10/25 03:36:05;;;;;;;5.73;2.40;;;13.80;99.90;;;;;;5067362;28;20566;-56
2022/10/25 03:38:32;;;;;;;7.47;2.10;;;13.80;99.90;;;;;;5066182;28;20712;-56
2022/10/25 03:40:59;;;;;;;3.70;1.90;;;13.80;99.90;;;;;;5065687;28;20193;-55
2022/10/25 03:43:26;;;;;;;7.43;2.20;;;13.70;99.90;;;;;;5060455;28;20284;-56
2022/10/25 03:45:53;;;;;;;3.50;1.60;;;13.80;99.90;;;;;;5061097;28;20712;-55
2022/10/25 03:48:19;;;;;;;6.60;2.10;;;13.70;99.90;;;;;;5057650;28;20302;-55
2022/10/25 03:50:46;;;;;;;7.10;2.53;;;13.70;99.90;;;;;;5056893;28;20567;-55
2022/10/25 03:53:13;;;;;;;7.67;2.27;;;13.70;99.90;;;;;;5059092;28;20205;-55
2022/10/25 03:55:40;;;;;;;2.60;2.20;;;13.60;99.90;;;;;;5062545;28;20826;-55
2022/10/25 03:58:06;;;;;;;7.87;2.43;;;13.60;99.90;;;;;;5065059;28;20237;-55
2022/10/25 04:00:33;;;;;;;6.43;2.37;;;13.60;99.90;;;;;;5061181;28;20193;-55
2022/10/25 04:03:01;;;;;;;7.70;2.57;;;13.60;99.90;;;;;;5058668;28;20235;-55
2022/10/25 04:05:29;;;;;;;5.93;2.60;;;13.50;99.90;;;;;;5057055;28;20270;-55
2022/10/25 04:07:56;;;;;;;5.33;2.13;;;13.50;99.90;;;;;;5068092;28;20223;-55
2022/10/25 04:10:23;;;;;;;4.47;2.40;;;13.50;99.90;;;;;;5063520;28;20563;-55
2022/10/25 04:12:51;;;;;;;6.57;2.60;;;13.60;99.90;;;;;;5066823;28;20207;-55
2022/10/25 04:15:21;;;;;;;3.40;2.10;;;13.50;99.90;;;;;;5065632;28;20612;-55
2022/10/25 04:17:49;;;;;;;7.00;2.37;;;13.50;99.90;;;;;;5066342;28;20213;-55
2022/10/25 04:20:15;;;;;;;4.47;1.87;;;13.50;99.90;;;;;;5062648;28;20221;-55
2022/10/25 04:22:42;;;;;;;5.53;2.13;;;13.50;99.90;;;;;;5061511;28;20199;-55
2022/10/25 04:25:09;;;;;;;4.13;1.77;;;13.40;99.90;;;;;;5064370;28;20202;-55
2022/10/25 04:27:36;;;;;;;7.13;2.13;;;13.40;99.90;;;;;;5057383;28;20784;-55
2022/10/25 04:30:03;;;;;;;5.97;1.87;;;13.40;99.90;;;;;;5067247;28;20237;-55
2022/10/25 04:32:29;;;;;;;7.20;1.57;;;13.40;99.90;;;;;;5070221;28;20205;-55
2022/10/25 04:34:56;;;;;;;6.57;2.13;;;13.40;99.90;;;;;;5069620;28;20236;-55
2022/10/25 04:37:23;;;;;;;5.90;1.93;;;13.40;99.90;;;;;;5069323;28;20244;-55
2022/10/25 04:39:50;;;;;;;5.03;1.70;;;13.40;99.90;;;;;;5063917;28;20624;-54
2022/10/25 04:42:18;;;;;;;6.37;2.13;;;13.40;99.90;;;;;;5066117;28;20285;-55
2022/10/25 04:44:44;;;;;;;6.47;2.03;;;13.30;99.90;;;;;;5070943;28;20537;-55
2022/10/25 04:47:11;;;;;;;4.97;2.27;;;13.40;99.90;;;;;;5069173;28;20211;-56
2022/10/25 04:49:38;;;;;;;6.40;1.90;;;13.30;99.90;;;;;;5069385;28;20201;-56
2022/10/25 04:52:05;;;;;;;6.83;1.97;;;13.30;99.90;;;;;;5070639;28;20692;-55
2022/10/25 04:54:32;;;;;;;6.27;2.90;;;13.30;99.90;;;;;;5066293;28;20198;-56
2022/10/25 04:56:59;;;;;;;4.10;2.00;;;13.40;99.90;;;;;;5067993;28;20638;-55
2022/10/25 04:59:26;;;;;;;6.17;2.23;;;13.30;99.90;;;;;;5069092;28;20196;-55
2022/10/25 05:01:52;;;;;;;5.27;2.53;;;13.30;99.90;;;;;;5067219;28;20203;-56
2022/10/25 05:04:20;;;;;;;4.97;2.10;;;13.30;99.90;;;;;;5063124;28;20659;-56
2022/10/25 05:06:46;;;;;;;4.37;2.10;;;13.20;99.90;;;;;;5080488;28;20195;-55
2022/10/25 05:09:13;;;;;;;5.87;2.37;;;13.20;99.90;;;;;;5062942;28;20637;-56
2022/10/25 05:11:40;;;;;;;4.07;2.20;;;13.20;99.90;;;;;;5063522;28;20586;-56
2022/10/25 05:14:07;;;;;;;8.70;2.40;;;13.20;99.90;;;;;;5065379;28;20288;-56
2022/10/25 05:16:34;;;;;;;6.57;2.67;;;13.20;99.90;;;;;;5063925;28;20730;-56
2022/10/25 05:19:00;;;;;;;6.43;2.97;;;13.20;99.90;;;;;;5063976;28;20210;-55
2022/10/25 05:21:29;;;;;;;9.17;2.80;;;13.20;99.90;;;;;;5066929;28;20626;-55
2022/10/25 05:23:58;;;;;;;4.77;2.90;;;13.20;99.90;;;;;;5066366;28;20194;-56
2022/10/25 05:26:29;;;;;;;8.80;3.03;;;13.10;99.90;;;;;;5065648;28;20201;-56
2022/10/25 05:28:56;;;;;;;6.33;2.40;;;13.10;99.90;;;;;;5063438;28;20653;-56
2022/10/25 05:31:26;;;;;;;9.00;2.80;;;13.10;99.90;;;;;;5060926;28;20211;-56
2022/10/25 05:33:58;;;;;;;5.10;3.27;;;13.20;99.90;;;;;;5065438;28;20551;-55
2022/10/25 05:36:29;;;;;;;8.70;2.50;;;13.10;99.90;;;;;;5064058;28;20221;-56
2022/10/25 05:38:57;;;;;;;6.80;2.87;;;13.10;99.90;;;;;;5064926;28;20616;-56
2022/10/25 05:41:24;;;;;;;8.13;3.40;;;13.10;99.90;;;;;;5065402;28;20285;-56
2022/10/25 05:43:51;;;;;;;8.23;3.03;;;13.20;99.90;;;;;;5069766;28;20224;-56
2022/10/25 05:46:23;;;;;;;6.57;2.70;;;13.10;99.90;;;;;;5062751;28;20193;-56
2022/10/25 05:48:50;;;;;;;8.43;2.57;;;13.00;99.90;;;;;;5069655;28;20206;-59
2022/10/25 05:51:29;;;;;;;6.87;2.40;;;13.00;99.90;;;;;;5070819;28;20667;-56
2022/10/25 05:54:12;;;;;;;5.70;2.13;;;13.10;99.90;;;;;;5070186;28;20207;-56
2022/10/25 05:56:40;;;;;;;5.33;2.47;;;13.10;99.90;;;;;;5070512;28;20293;-56
2022/10/25 05:59:12;;;;;;;7.10;3.00;;;13.10;99.90;;;;;;5077247;28;20748;-56
2022/10/25 06:01:41;;;;;;;6.90;2.20;;;13.00;99.90;;;;;;5055083;28;20210;-55
2022/10/25 06:04:09;;;;;;;7.07;2.60;;;13.10;99.90;;;;;;5070064;28;20208;-56
2022/10/25 06:06:37;;;;;;;7.60;2.40;;;13.00;99.90;;;;;;5068216;28;20293;-55
2022/10/25 06:09:05;;;;;;;6.33;2.80;;;13.00;99.90;;;;;;5070561;28;20755;-56
2022/10/25 06:11:32;;;;;;;6.83;2.40;;;13.00;99.90;;;;;;5057207;28;20237;-56
2022/10/25 06:13:59;;;;;;;5.60;2.70;;;13.00;99.90;;;;;;5061657;28;20239;-55
2022/10/25 06:16:25;;;;;;;3.93;2.80;;;13.00;99.90;;;;;;5062453;28;20558;-56
2022/10/25 06:18:53;;;;;;;7.57;3.07;;;13.00;99.90;;;;;;5066349;28;20241;-56
2022/10/25 06:21:26;;;;;;;8.03;3.00;;;13.00;99.90;;;;;;5071210;28;20206;-56
2022/10/25 06:23:53;;;;;;;8.00;3.30;;;13.00;99.90;;;;;;5067122;28;20220;-56
2022/10/25 06:26:23;;;;;;;8.10;3.20;;;13.00;99.90;;;;;;5063840;28;20189;-56
2022/10/25 06:28:59;;;;;;;6.17;3.17;;;13.00;99.90;;;;;;5068349;28;20228;-60
2022/10/25 06:31:27;;;;;;;6.67;3.63;;;13.00;99.90;;;;;;5058017;28;20201;-56
2022/10/25 06:33:54;;;;;;;8.60;3.80;;;12.90;99.90;;;;;;5068833;28;20788;-56
2022/10/25 06:36:23;;;;;;;8.90;3.87;;;13.00;99.90;;;;;;5059515;28;20198;-56
2022/10/25 06:38:50;;;;;;;5.80;3.07;;;13.00;99.90;;;;;;5058501;28;20231;-56
2022/10/25 06:41:19;;;;;;;8.10;3.30;;;13.10;99.90;;;;;;4699216;28;10000749;-56
2022/10/25 06:43:48;;;;;;;8.80;3.70;;;13.10;99.90;;;;;;5063758;28;20205;-55
2022/10/25 06:46:26;;;;;;;8.90;3.77;;;13.10;99.90;;;;;;5058279;28;20196;-56
2022/10/25 06:48:55;;;;;;;8.73;3.60;;;13.20;99.90;;;;;;5060310;28;20621;-57
2022/10/25 06:51:23;;;;;;;9.03;4.20;;;13.20;99.90;;;;;;5064459;28;20220;-56
2022/10/25 06:53:58;;;;;;;9.97;4.43;;;13.20;99.90;;;;;;5074813;28;20202;-55
2022/10/25 06:56:27;;;;;;;12.80;3.77;;;13.20;99.90;;;;;;5061265;28;20591;-55
2022/10/25 06:58:54;;;;;;;8.60;3.70;;;13.30;99.90;;;;;;5057838;28;20233;-56
2022/10/25 07:01:23;;;;;;;9.37;4.70;;;13.30;99.90;;;;;;5057979;28;20305;-54
2022/10/25 07:03:52;;;;;;;6.30;4.13;;;13.30;99.90;;;;;;5062412;28;20717;-57
2022/10/25 07:06:25;;;;;;;9.03;4.57;;;13.40;99.90;;;;;;5065416;28;20199;-55
2022/10/25 07:08:54;;;;;;;10.60;4.90;;;13.40;99.90;;;;;;5062473;28;20266;-55
2022/10/25 07:11:23;;;;;;;9.30;5.20;;;13.50;99.90;;;;;;5063858;28;20319;-55
2022/10/25 07:13:50;;;;;;;9.37;4.10;;;13.50;99.90;;;;;;5056232;28;20206;-55
2022/10/25 07:16:18;;;;;;;13.03;5.20;;;13.70;99.90;;;;;;5059981;28;20209;-55
2022/10/25 07:18:46;;;;;;;6.40;4.80;;;13.60;99.90;;;;;;5060509;28;20220;-55
2022/10/25 07:21:19;;;;;;;10.33;5.33;;;13.60;99.90;;;;;;5060048;28;20206;-55
2022/10/25 07:23:46;;;;;;;8.63;5.57;;;13.70;99.90;;;;;;5068791;28;20586;-55
2022/10/25 07:26:20;;;;;;;10.03;5.27;;;13.70;99.90;;;;;;5064997;28;20758;-55
2022/10/25 07:28:50;;;;;;;10.33;5.60;;;13.70;99.90;;;;;;5069239;28;20204;-56
2022/10/25 07:31:26;;;;;;;9.40;5.70;;;13.70;99.90;;;;;;5071429;28;20201;-55
2022/10/25 07:33:56;;;;;;;10.63;5.50;;;13.70;99.90;;;;;;5063744;28;20197;-55
2022/10/25 07:36:23;;;;;;;15.00;6.40;;;13.70;99.90;;;;;;5062014;28;20202;-55
2022/10/25 07:38:49;;;;;;;9.53;6.43;;;13.70;99.90;;;;;;5051411;28;20567;-54
2022/10/25 07:41:16;;;;;;;12.10;6.40;;;13.80;99.90;;;;;;5057378;28;20630;-55
2022/10/25 07:43:43;;;;;;;15.37;7.53;;;13.80;99.90;;;;;;5058647;28;20244;-55
2022/10/25 07:46:10;;;;;;;13.77;8.10;;;13.90;99.90;;;;;;5060916;28;20221;-55
2022/10/25 07:48:37;;;;;;;11.13;7.13;;;13.90;99.90;;;;;;5054809;28;20301;-55
2022/10/25 07:51:06;;;;;;;8.77;7.37;;;13.90;99.90;;;;;;5058935;28;20201;-55
2022/10/25 07:53:33;;;;;;;12.87;8.47;;;13.90;99.90;;;;;;5059712;28;20200;-55
2022/10/25 07:56:01;;;;;;;12.87;8.23;;;13.80;99.90;;;;;;5056351;28;20304;-55
2022/10/25 07:58:27;;;;;;;11.97;8.43;;;13.80;99.90;;;;;;5056729;28;20315;-55
2022/10/25 08:01:05;;;;;;;16.30;7.80;;;13.90;99.90;;;;;;5052229;28;21616;-56
2022/10/25 08:03:32;;;;;;;16.53;8.70;;;14.20;99.90;;;;;;5054382;28;20197;-56
2022/10/25 08:06:00;;;;;;;13.77;8.57;;;14.30;99.90;;;;;;5066578;28;20195;-55
2022/10/25 08:08:28;;;;;;;17.27;8.40;;;14.50;99.90;;;;;;5053631;28;20213;-54
2022/10/25 08:10:55;;;;;;;12.53;8.07;;;14.60;99.90;;;;;;5055857;28;20230;-55
2022/10/25 08:13:23;;;;;;;10.40;7.40;;;14.60;99.90;;;;;;5052849;28;20206;-55
2022/10/25 08:15:54;;;;;;;12.87;7.93;;;14.80;99.90;;;;;;5052470;28;20210;-56
2022/10/25 08:18:22;;;;;;;13.37;8.87;;;14.90;99.90;;;;;;5052497;28;20208;-55
2022/10/25 08:20:49;;;;;;;9.03;7.27;;;15.00;99.90;;;;;;5049949;28;20604;-56
2022/10/25 08:23:30;;;;;;;13.63;7.37;;;15.10;99.90;;;;;;5064071;28;20228;-56
2022/10/25 08:25:57;;;;;;;16.30;7.77;;;15.20;99.90;;;;;;5059209;28;20256;-54
2022/10/25 08:28:24;;;;;;;12.83;7.13;;;15.20;99.90;;;;;;5063067;28;20201;-55
2022/10/25 08:30:54;;;;;;;12.40;7.00;;;15.20;99.90;;;;;;5057399;28;20523;-55
2022/10/25 08:33:21;;;;;;;12.63;7.30;;;15.20;99.90;;;;;;5051272;28;20211;-55
2022/10/25 08:35:47;;;;;;;10.47;7.10;;;15.60;99.90;;;;;;5061547;28;21582;-55
2022/10/25 08:38:15;;;;;;;12.83;6.77;;;15.40;99.90;;;;;;5064063;28;20218;-55
2022/10/25 08:41:05;;;;;;;9.97;7.27;;;15.50;99.90;;;;;;5070919;28;20193;-55
2022/10/25 08:43:59;;;;;;;10.67;6.80;;;15.60;99.90;;;;;;5057888;28;20207;-55
2022/10/25 08:46:51;;;;;;;10.80;6.90;;;15.60;99.90;;;;;;5058288;28;20327;-55
2022/10/25 08:49:25;;;;;;;14.00;6.60;;;15.50;99.90;;;;;;5056110;28;20666;-56
2022/10/25 08:51:54;;;;;;;9.63;6.07;;;15.40;99.90;;;;;;5056922;28;20213;-55
2022/10/25 08:54:26;;;;;;;10.07;6.60;;;15.60;99.90;;;;;;5059016;28;20299;-56
2022/10/25 08:57:13;;;;;;;15.13;6.93;;;15.50;99.90;;;;;;5059799;28;20712;-55
2022/10/25 08:59:47;;;;;;;14.80;7.13;;;15.70;99.90;;;;;;5059989;28;20220;-55
2022/10/25 09:02:40;;;;;;;13.50;6.70;;;15.60;99.90;;;;;;5064493;28;20688;-55
2022/10/25 09:05:43;;;;;;;13.60;6.67;;;15.70;99.90;;;;;;5066020;28;20534;-56
2022/10/25 09:08:25;;;;;;;13.30;6.20;;;16.00;99.90;;;;;;5058094;28;20284;-54
2022/10/25 09:11:19;;;;;;;10.13;6.97;;;15.80;99.90;;;;;;5059392;28;20220;-55
2022/10/25 09:14:02;;;;;;;11.33;6.57;;;15.90;99.90;;;;;;5055936;28;20184;-54
2022/10/25 09:16:50;;;;;;;9.40;6.37;;;16.20;99.90;;;;;;5059288;28;20227;-55
2022/10/25 09:19:28;;;;;;;12.00;7.43;;;15.90;99.90;;;;;;5062342;28;21017;-55
2022/10/25 09:21:59;;;;;;;12.63;6.53;;;15.80;99.90;;;;;;5071422;28;20269;-55
2022/10/25 09:24:41;;;;;;;9.73;5.50;;;16.10;99.90;;;;;;5061769;28;20199;-56
2022/10/25 09:27:21;;;;;;;11.57;6.43;;;16.20;99.90;;;;;;5063504;28;20193;-55
2022/10/25 09:30:00;;;;;;;11.07;6.13;;;16.20;99.90;;;;;;5055711;28;20758;-55
2022/10/25 09:32:41;;;;;;;11.90;5.80;;;16.20;99.90;;;;;;5060080;28;20195;-56
2022/10/25 09:35:29;;;;;;;10.67;5.53;;;16.10;99.90;;;;;;5060215;28;20291;-58
2022/10/25 09:38:06;;;;;;;7.07;5.43;;;15.80;99.90;;;;;;5062918;28;20206;-56
2022/10/25 09:40:43;;;;;;;9.97;5.20;;;15.70;99.90;;;;;;5058185;28;20764;-56
2022/10/25 09:43:17;;;;;;;11.13;5.13;;;16.00;99.90;;;;;;5061417;28;20213;-56
2022/10/25 09:45:50;;;;;;;10.53;5.30;;;15.90;99.90;;;;;;5075981;28;20294;-58
2022/10/25 09:48:26;;;;;;;10.33;5.03;;;16.00;99.90;;;;;;5061474;28;20756;-56
2022/10/25 09:51:03;;;;;;;8.77;5.13;;;15.80;99.90;;;;;;5060021;28;20530;-56
2022/10/25 09:53:32;;;;;;;10.40;4.80;;;15.90;99.90;;;;;;5060769;28;20196;-56
2022/10/25 09:56:01;;;;;;;11.07;4.97;;;15.80;99.90;;;;;;5060617;28;20242;-56
2022/10/25 09:58:32;;;;;;;7.33;4.80;;;15.70;99.90;;;;;;5052785;28;20236;-55
2022/10/25 10:01:17;;;;;;;15.77;5.27;;;15.70;99.90;;;;;;5054196;28;20663;-56
2022/10/25 10:03:44;;;;;;;7.43;5.03;;;15.70;99.90;;;;;;5076343;28;20276;-56
2022/10/25 10:06:32;;;;;;;6.97;4.60;;;15.90;99.90;;;;;;5063620;28;20193;-55
2022/10/25 10:09:05;;;;;;;9.10;4.80;;;15.90;99.90;;;;;;5061722;28;20218;-56
2022/10/25 10:11:33;;;;;;;7.97;4.37;;;16.10;99.90;;;;;;5063986;28;20234;-56
2022/10/25 10:14:02;;;;;;;9.63;4.70;;;16.00;99.90;;;;;;5059581;28;20204;-56
2022/10/25 10:16:40;;;;;;;10.83;4.93;;;15.90;99.90;;;;;;5062938;28;20198;-56
2022/10/25 10:19:23;;;;;;;8.93;4.67;;;15.80;99.90;;;;;;5060695;28;20212;-56
2022/10/25 10:21:56;;;;;;;7.23;4.53;;;15.70;99.90;;;;;;5064138;28;20202;-55
2022/10/25 10:24:31;;;;;;;8.57;4.27;;;15.70;99.90;;;;;;5062067;28;20660;-56
2022/10/25 10:27:00;;;;;;;7.97;4.37;;;15.70;99.90;;;;;;5061991;28;20192;-56
2022/10/25 10:29:33;;;;;;;9.37;4.43;;;15.60;99.90;;;;;;5063509;28;20201;-56
2022/10/25 10:32:05;;;;;;;6.17;4.20;;;15.70;99.90;;;;;;5061468;28;20206;-56
2022/10/25 10:34:49;;;;;;;9.43;4.07;;;15.90;99.90;;;;;;5059070;28;20629;-56
2022/10/25 10:37:20;;;;;;;9.73;4.03;;;15.80;99.90;;;;;;5058995;28;20722;-56
2022/10/25 10:40:01;;;;;;;10.23;3.97;;;15.90;99.90;;;;;;5061244;28;20224;-56
2022/10/25 10:42:31;;;;;;;5.17;4.17;;;15.70;99.90;;;;;;5063261;28;20188;-56
2022/10/25 10:45:09;;;;;;;6.93;3.73;;;15.80;99.90;;;;;;5057514;28;20202;-57
2022/10/25 10:48:02;;;;;;;7.63;3.23;;;15.90;99.90;;;;;;5057438;28;20574;-55
2022/10/25 10:50:31;;;;;;;7.13;3.40;;;15.90;99.90;;;;;;5056560;28;20272;-56
2022/10/25 10:53:04;;;;;;;12.10;3.33;;;16.00;99.90;;;;;;5065649;28;20240;-55
2022/10/25 10:55:59;;;;;;;10.33;3.73;;;15.80;99.90;;;;;;5059895;28;20205;-66
2022/10/25 10:58:37;;;;;;;7.77;3.60;;;15.80;99.90;;;;;;5057054;28;20599;-68
2022/10/25 11:01:07;;;;;;;4.80;3.30;;;16.10;99.90;;;;;;5060839;28;20200;-56
2022/10/25 11:03:41;;;;;;;10.13;4.90;;;16.00;99.90;;;;;;5064304;28;20220;-57
2022/10/25 11:06:27;;;;;;;5.60;4.20;;;16.10;99.90;;;;;;5058927;28;20299;-55
2022/10/25 11:09:14;;;;;;;7.53;3.63;;;16.10;99.90;;;;;;5058741;28;20207;-56
2022/10/25 11:11:42;;;;;;;4.47;3.10;;;16.20;99.90;;;;;;5059059;28;20223;-56
2022/10/25 11:14:16;;;;;;;5.60;3.43;;;16.20;99.90;;;;;;5054566;28;20659;-55
2022/10/25 11:16:59;;;;;;;7.00;3.47;;;16.30;99.90;;;;;;5058605;28;22142;-55
2022/10/25 11:19:38;;;;;;;5.67;2.77;;;16.40;99.90;;;;;;5058434;28;20212;-55
2022/10/25 11:22:16;;;;;;;3.67;2.67;;;16.60;99.90;;;;;;5054894;28;20243;-56
2022/10/25 11:25:08;;;;;;;7.40;3.00;;;16.60;99.90;;;;;;5063690;28;20203;-56
2022/10/25 11:28:03;;;;;;;8.73;3.13;;;16.50;99.90;;;;;;5061969;28;20294;-56
2022/10/25 11:30:50;;;;;;;6.03;3.63;;;16.20;99.90;;;;;;5057944;28;20223;-56
2022/10/25 11:33:39;;;;;;;5.17;3.13;;;16.20;99.90;;;;;;5060842;28;20198;-56
2022/10/25 11:36:22;;;;;;;9.03;3.27;;;16.50;99.90;;;;;;5063440;28;20647;-56
2022/10/25 11:38:54;;;;;;;5.00;3.03;;;16.60;99.90;;;;;;5061660;28;20195;-56
2022/10/25 11:41:31;;;;;;;6.50;3.00;;;16.90;99.90;;;;;;5055456;28;20586;-56
2022/10/25 11:44:19;;;;;;;8.97;3.10;;;16.90;99.90;;;;;;5059668;28;20554;-56
2022/10/25 11:47:16;;;;;;;6.03;3.30;;;16.80;99.90;;;;;;5056495;28;20202;-55
2022/10/25 11:49:45;;;;;;;5.40;3.27;;;16.80;99.90;;;;;;5055332;28;20300;-55
2022/10/25 11:52:58;;;;;;;7.80;3.30;;;16.90;99.90;;;;;;5064096;28;20793;-56
2022/10/25 11:55:49;;;;;;;8.77;4.00;;;16.60;99.90;;;;;;5047920;28;20217;-56
2022/10/25 11:58:41;;;;;;;8.57;3.90;;;16.90;99.90;;;;;;5061441;28;20694;-55
2022/10/25 12:01:26;;;;;;;7.83;4.43;;;17.40;99.90;;;;;;5058078;28;20224;-56
2022/10/25 12:03:59;;;;;;;9.50;3.40;;;17.60;99.90;;;;;;5064008;28;20202;-56
2022/10/25 12:06:50;;;;;;;8.13;3.87;;;18.00;99.90;;;;;;5066975;28;20198;-55
2022/10/25 12:09:46;;;;;;;4.30;3.20;;;18.30;99.90;;;;;;5058634;28;20322;-57
2022/10/25 12:12:17;;;;;;;10.77;3.53;;;18.60;99.90;;;;;;5057176;28;20203;-56
2022/10/25 12:14:51;;;;;;;8.37;3.80;;;18.80;99.90;;;;;;5053748;28;20635;-56
2022/10/25 12:17:27;;;;;;;6.23;3.77;;;19.50;99.90;;;;;;5060792;28;20624;-56
2022/10/25 12:19:57;;;;;;;7.97;3.77;;;19.90;99.90;;;;;;5054781;28;20226;-55
2022/10/25 12:22:35;;;;;;;10.10;4.83;;;20.20;99.90;;;;;;5062001;28;20223;-56
2022/10/25 12:25:14;;;;;;;7.60;3.77;;;19.20;99.90;;;;;;5056889;28;20534;-56
2022/10/25 12:27:45;;;;;;;5.23;3.40;;;18.20;99.90;;;;;;5057465;28;20349;-56
2022/10/25 12:30:15;;;;;;;11.53;3.93;;;18.30;99.90;;;;;;5057512;28;20203;-56
2022/10/25 12:32:56;;;;;;;6.43;3.53;;;19.20;99.90;;;;;;5059466;28;20194;-56
2022/10/25 12:35:38;;;;;;;4.07;3.37;;;19.30;99.90;;;;;;5053644;28;20651;-56
2022/10/25 12:38:14;;;;;;;7.37;3.03;;;19.40;99.90;;;;;;5059204;28;20566;-56
2022/10/25 12:40:46;;;;;;;6.50;3.63;;;19.10;99.90;;;;;;5056994;28;20664;-56
2022/10/25 12:43:35;;;;;;;10.30;4.30;;;19.40;99.90;;;;;;5059756;28;20709;-56
2022/10/25 12:46:05;;;;;;;4.10;3.60;;;19.30;99.90;;;;;;5060319;28;20198;-56
2022/10/25 12:48:57;;;;;;;7.67;3.27;;;19.10;99.90;;;;;;5059599;28;20220;-56
2022/10/25 12:51:31;;;;;;;5.70;3.60;;;19.00;99.90;;;;;;5058997;28;20191;-56
2022/10/25 12:54:12;;;;;;;6.00;3.10;;;18.20;99.90;;;;;;5066476;28;20220;-56
2022/10/25 12:56:54;;;;;;;4.90;2.43;;;17.90;99.90;;;;;;5062811;28;20197;-56
2022/10/25 12:59:45;;;;;;;5.03;2.50;;;18.50;99.90;;;;;;5058051;28;20693;-55
2022/10/25 13:02:12;;;;;;;6.33;2.50;;;18.70;99.90;;;;;;5063380;28;20196;-61
2022/10/25 13:04:52;;;;;;;5.47;2.50;;;18.60;99.90;;;;;;5062286;28;20643;-61
2022/10/25 13:07:22;;;;;;;11.10;2.60;;;18.90;99.90;;;;;;5059842;28;20739;-56
2022/10/25 13:09:49;;;;;;;8.17;2.53;;;18.70;99.90;;;;;;5054020;28;20265;-56
2022/10/25 13:12:22;;;;;;;7.47;3.33;;;18.60;99.90;;;;;;5055178;28;20206;-56
2022/10/25 13:14:53;;;;;;;7.63;3.50;;;18.20;99.90;;;;;;5055240;28;20204;-56
2022/10/25 13:17:20;;;;;;;5.27;3.43;;;18.10;99.90;;;;;;5059996;28;20672;-56